sensor_id;sensor_type;location;lat;lon;timestamp;temperature;humidity
4677;DHT22;2352;48.180;11.478;2024-02-26T00:02:01;6.90;62.90
4677;DHT22;2352;48.180;11.478;2024-02-26T00:07:04;6.80;63.00
4677;DHT22;2352;48.180;11.478;2024-02-26T00:12:08;6.70;63.10
4677;DHT22;2352;48.180;11.478;2024-02-26T00:17:13;6.60;63.40
4677;DHT22;2352;48.180;11.478;2024-02-26T00:22:16;6.50;63.20
4677;DHT22;2352;48.180;11.478;2024-02-26T00:27:20;6.50;63.50
4677;DHT22;2352;48.180;11.478;2024-02-26T00:32:23;6.40;63.30
4677;DHT22;2352;48.180;11.478;2024-02-26T00:37:26;6.40;63.10
4677;DHT22;2352;48.180;11.478;2024-02-26T00:42:30;6.30;63.20
4677;DHT22;2352;48.180;11.478;2024-02-26T00:47:33;6.00;63.40
4677;DHT22;2352;48.180;11.478;2024-02-26T00:52:36;5.90;63.80
4677;DHT22;2352;48.180;11.478;2024-02-26T00:57:40;6.00;64.00
4677;DHT22;2352;48.180;11.478;2024-02-26T01:02:44;5.90;64.40
4677;DHT22;2352;48.180;11.478;2024-02-26T01:07:48;5.90;64.10
4677;DHT22;2352;48.180;11.478;2024-02-26T01:12:52;5.80;64.10
4677;DHT22;2352;48.180;11.478;2024-02-26T01:17:55;5.70;64.20
4677;DHT22;2352;48.180;11.478;2024-02-26T01:22:58;5.70;63.90
4677;DHT22;2352;48.180;11.478;2024-02-26T01:28:03;5.60;63.90
4677;DHT22;2352;48.180;11.478;2024-02-26T01:33:07;5.70;63.90
4677;DHT22;2352;48.180;11.478;2024-02-26T01:38:10;5.60;64.10
4677;DHT22;2352;48.180;11.478;2024-02-26T01:43:14;5.50;64.40
4677;DHT22;2352;48.180;11.478;2024-02-26T01:48:17;5.50;64.40
4677;DHT22;2352;48.180;11.478;2024-02-26T01:53:21;5.40;64.60
4677;DHT22;2352;48.180;11.478;2024-02-26T01:58:25;5.40;64.50
4677;DHT22;2352;48.180;11.478;2024-02-26T02:03:28;5.40;64.20
4677;DHT22;2352;48.180;11.478;2024-02-26T02:08:34;5.40;64.50
4677;DHT22;2352;48.180;11.478;2024-02-26T02:13:38;5.20;64.70
4677;DHT22;2352;48.180;11.478;2024-02-26T02:18:41;5.30;64.20
4677;DHT22;2352;48.180;11.478;2024-02-26T02:23:46;5.30;64.50
4677;DHT22;2352;48.180;11.478;2024-02-26T02:28:50;5.30;64.30
4677;DHT22;2352;48.180;11.478;2024-02-26T02:33:53;5.30;64.50
4677;DHT22;2352;48.180;11.478;2024-02-26T02:38:58;5.20;64.00
4677;DHT22;2352;48.180;11.478;2024-02-26T02:44:01;5.30;64.50
4677;DHT22;2352;48.180;11.478;2024-02-26T02:49:04;5.20;64.70
4677;DHT22;2352;48.180;11.478;2024-02-26T02:54:11;5.20;64.50
4677;DHT22;2352;48.180;11.478;2024-02-26T02:59:14;5.20;64.70
4677;DHT22;2352;48.180;11.478;2024-02-26T03:04:17;5.10;64.80
4677;DHT22;2352;48.180;11.478;2024-02-26T03:09:21;5.00;64.50
4677;DHT22;2352;48.180;11.478;2024-02-26T03:14:25;5.00;64.80
4677;DHT22;2352;48.180;11.478;2024-02-26T03:19:28;5.00;65.00
4677;DHT22;2352;48.180;11.478;2024-02-26T03:24:32;4.90;65.40
4677;DHT22;2352;48.180;11.478;2024-02-26T03:29:35;4.90;65.50
4677;DHT22;2352;48.180;11.478;2024-02-26T03:34:38;5.00;65.40
4677;DHT22;2352;48.180;11.478;2024-02-26T03:39:43;4.90;65.90
4677;DHT22;2352;48.180;11.478;2024-02-26T03:44:46;5.00;65.70
4677;DHT22;2352;48.180;11.478;2024-02-26T03:49:49;5.00;65.40
4677;DHT22;2352;48.180;11.478;2024-02-26T03:54:53;5.00;65.50
4677;DHT22;2352;48.180;11.478;2024-02-26T03:59:56;5.00;65.40
4677;DHT22;2352;48.180;11.478;2024-02-26T04:04:59;5.10;65.50
4677;DHT22;2352;48.180;11.478;2024-02-26T04:10:08;5.10;65.70
4677;DHT22;2352;48.180;11.478;2024-02-26T04:15:11;5.00;65.70
4677;DHT22;2352;48.180;11.478;2024-02-26T04:20:15;5.10;65.80
4677;DHT22;2352;48.180;11.478;2024-02-26T04:25:20;5.10;65.20
4677;DHT22;2352;48.180;11.478;2024-02-26T04:30:23;5.00;65.10
4677;DHT22;2352;48.180;11.478;2024-02-26T04:35:26;5.00;65.00
4677;DHT22;2352;48.180;11.478;2024-02-26T04:40:30;5.00;65.20
4677;DHT22;2352;48.180;11.478;2024-02-26T04:45:33;4.90;65.30
4677;DHT22;2352;48.180;11.478;2024-02-26T04:50:36;4.90;65.30
4677;DHT22;2352;48.180;11.478;2024-02-26T04:55:40;4.90;65.10
4677;DHT22;2352;48.180;11.478;2024-02-26T05:00:43;4.80;65.20
4677;DHT22;2352;48.180;11.478;2024-02-26T05:05:46;4.80;65.20
4677;DHT22;2352;48.180;11.478;2024-02-26T05:10:51;4.80;65.40
4677;DHT22;2352;48.180;11.478;2024-02-26T05:15:54;4.80;65.40
4677;DHT22;2352;48.180;11.478;2024-02-26T05:20:57;4.70;65.30
4677;DHT22;2352;48.180;11.478;2024-02-26T05:26:01;4.70;65.60
4677;DHT22;2352;48.180;11.478;2024-02-26T05:31:04;4.70;65.40
4677;DHT22;2352;48.180;11.478;2024-02-26T05:36:07;4.70;65.50
4677;DHT22;2352;48.180;11.478;2024-02-26T05:41:12;4.70;65.30
4677;DHT22;2352;48.180;11.478;2024-02-26T05:46:16;4.80;65.60
4677;DHT22;2352;48.180;11.478;2024-02-26T05:51:19;4.70;65.30
4677;DHT22;2352;48.180;11.478;2024-02-26T05:56:23;4.70;65.40
4677;DHT22;2352;48.180;11.478;2024-02-26T06:01:26;4.60;66.00
4677;DHT22;2352;48.180;11.478;2024-02-26T06:06:30;4.70;66.00
4677;DHT22;2352;48.180;11.478;2024-02-26T06:11:34;4.80;66.00
4677;DHT22;2352;48.180;11.478;2024-02-26T06:16:37;4.80;65.90
4677;DHT22;2352;48.180;11.478;2024-02-26T06:21:40;4.90;66.30
4677;DHT22;2352;48.180;11.478;2024-02-26T06:26:44;4.80;66.20
4677;DHT22;2352;48.180;11.478;2024-02-26T06:31:47;4.90;66.20
4677;DHT22;2352;48.180;11.478;2024-02-26T06:36:52;4.90;65.90
4677;DHT22;2352;48.180;11.478;2024-02-26T06:41:56;4.90;66.40
4677;DHT22;2352;48.180;11.478;2024-02-26T06:47:02;4.70;66.70
4677;DHT22;2352;48.180;11.478;2024-02-26T06:52:05;4.80;66.10
4677;DHT22;2352;48.180;11.478;2024-02-26T06:57:09;4.90;66.80
4677;DHT22;2352;48.180;11.478;2024-02-26T07:02:13;5.10;65.80
4677;DHT22;2352;48.180;11.478;2024-02-26T07:07:16;5.10;65.60
4677;DHT22;2352;48.180;11.478;2024-02-26T07:12:21;5.40;65.90
4677;DHT22;2352;48.180;11.478;2024-02-26T07:17:24;5.50;65.20
4677;DHT22;2352;48.180;11.478;2024-02-26T07:22:27;5.50;65.60
4677;DHT22;2352;48.180;11.478;2024-02-26T07:27:31;6.20;69.30
4677;DHT22;2352;48.180;11.478;2024-02-26T07:32:34;6.50;68.80
4677;DHT22;2352;48.180;11.478;2024-02-26T07:37:37;6.60;67.20
4677;DHT22;2352;48.180;11.478;2024-02-26T07:42:41;6.70;66.40
4677;DHT22;2352;48.180;11.478;2024-02-26T07:47:44;6.70;66.30
4677;DHT22;2352;48.180;11.478;2024-02-26T07:52:47;6.50;65.90
4677;DHT22;2352;48.180;11.478;2024-02-26T07:57:54;6.50;64.70
4677;DHT22;2352;48.180;11.478;2024-02-26T08:02:57;6.40;64.80
4677;DHT22;2352;48.180;11.478;2024-02-26T08:08:00;6.60;65.20
4677;DHT22;2352;48.180;11.478;2024-02-26T08:13:04;6.40;64.70
4677;DHT22;2352;48.180;11.478;2024-02-26T08:18:07;6.60;64.00
4677;DHT22;2352;48.180;11.478;2024-02-26T08:23:11;6.40;65.00
4677;DHT22;2352;48.180;11.478;2024-02-26T08:28:15;6.60;64.90
4677;DHT22;2352;48.180;11.478;2024-02-26T08:33:19;6.70;64.80
4677;DHT22;2352;48.180;11.478;2024-02-26T08:38:22;7.10;64.40
4677;DHT22;2352;48.180;11.478;2024-02-26T08:43:27;6.90;64.30
4677;DHT22;2352;48.180;11.478;2024-02-26T08:48:30;6.90;65.00
4677;DHT22;2352;48.180;11.478;2024-02-26T08:53:33;6.90;64.70
4677;DHT22;2352;48.180;11.478;2024-02-26T08:58:45;7.10;65.10
4677;DHT22;2352;48.180;11.478;2024-02-26T09:03:50;7.40;64.50
4677;DHT22;2352;48.180;11.478;2024-02-26T09:08:53;7.50;64.80
4677;DHT22;2352;48.180;11.478;2024-02-26T09:14:02;7.50;64.50
4677;DHT22;2352;48.180;11.478;2024-02-26T09:19:05;7.60;64.50
4677;DHT22;2352;48.180;11.478;2024-02-26T09:24:09;7.70;64.40
4677;DHT22;2352;48.180;11.478;2024-02-26T09:29:13;7.90;64.10
4677;DHT22;2352;48.180;11.478;2024-02-26T09:34:16;8.00;64.20
4677;DHT22;2352;48.180;11.478;2024-02-26T09:39:19;8.20;63.80
4677;DHT22;2352;48.180;11.478;2024-02-26T09:44:25;8.40;62.80
4677;DHT22;2352;48.180;11.478;2024-02-26T09:49:32;8.90;62.50
4677;DHT22;2352;48.180;11.478;2024-02-26T09:54:35;9.30;60.60
4677;DHT22;2352;48.180;11.478;2024-02-26T09:59:39;9.40;59.90
4677;DHT22;2352;48.180;11.478;2024-02-26T10:04:44;9.40;58.80
4677;DHT22;2352;48.180;11.478;2024-02-26T10:09:52;9.60;58.90
4677;DHT22;2352;48.180;11.478;2024-02-26T10:14:57;9.70;58.80
4677;DHT22;2352;48.180;11.478;2024-02-26T10:20:11;9.80;58.20
4677;DHT22;2352;48.180;11.478;2024-02-26T10:25:15;10.10;59.10
4677;DHT22;2352;48.180;11.478;2024-02-26T10:30:20;10.60;57.10
4677;DHT22;2352;48.180;11.478;2024-02-26T10:35:24;10.90;56.00
4677;DHT22;2352;48.180;11.478;2024-02-26T10:40:27;10.90;54.10
4677;DHT22;2352;48.180;11.478;2024-02-26T10:45:32;11.00;53.80
4677;DHT22;2352;48.180;11.478;2024-02-26T10:50:38;11.20;56.10
4677;DHT22;2352;48.180;11.478;2024-02-26T10:55:42;11.40;53.80
4677;DHT22;2352;48.180;11.478;2024-02-26T11:00:48;11.60;53.20
4677;DHT22;2352;48.180;11.478;2024-02-26T11:05:52;11.70;52.20
4677;DHT22;2352;48.180;11.478;2024-02-26T11:10:56;12.00;52.30
4677;DHT22;2352;48.180;11.478;2024-02-26T11:16:01;12.30;53.50
4677;DHT22;2352;48.180;11.478;2024-02-26T11:21:05;12.60;51.90
4677;DHT22;2352;48.180;11.478;2024-02-26T11:26:11;13.00;50.90
4677;DHT22;2352;48.180;11.478;2024-02-26T11:31:15;13.70;51.50
4677;DHT22;2352;48.180;11.478;2024-02-26T11:36:19;13.90;49.70
4677;DHT22;2352;48.180;11.478;2024-02-26T11:41:23;13.90;48.70
4677;DHT22;2352;48.180;11.478;2024-02-26T11:46:28;14.00;49.50
4677;DHT22;2352;48.180;11.478;2024-02-26T11:51:34;14.00;48.40
4677;DHT22;2352;48.180;11.478;2024-02-26T11:56:40;14.30;48.50
4677;DHT22;2352;48.180;11.478;2024-02-26T12:01:46;14.40;48.20
4677;DHT22;2352;48.180;11.478;2024-02-26T12:06:52;15.20;47.60
4677;DHT22;2352;48.180;11.478;2024-02-26T12:11:55;15.90;47.40
4677;DHT22;2352;48.180;11.478;2024-02-26T12:17:00;16.20;45.80
4677;DHT22;2352;48.180;11.478;2024-02-26T12:22:07;16.40;46.30
4677;DHT22;2352;48.180;11.478;2024-02-26T12:27:11;16.40;46.80
4677;DHT22;2352;48.180;11.478;2024-02-26T12:32:15;16.70;46.70
4677;DHT22;2352;48.180;11.478;2024-02-26T12:37:18;17.20;45.40
4677;DHT22;2352;48.180;11.478;2024-02-26T12:42:21;17.70;45.80
4677;DHT22;2352;48.180;11.478;2024-02-26T12:47:26;18.10;45.10
4677;DHT22;2352;48.180;11.478;2024-02-26T12:52:29;18.20;43.20
4677;DHT22;2352;48.180;11.478;2024-02-26T12:57:32;17.90;43.30
4677;DHT22;2352;48.180;11.478;2024-02-26T13:02:38;18.40;44.10
4677;DHT22;2352;48.180;11.478;2024-02-26T13:07:41;18.80;43.70
4677;DHT22;2352;48.180;11.478;2024-02-26T13:12:45;18.90;40.50
4677;DHT22;2352;48.180;11.478;2024-02-26T13:17:49;18.60;41.20
4677;DHT22;2352;48.180;11.478;2024-02-26T13:23:02;19.00;39.90
4677;DHT22;2352;48.180;11.478;2024-02-26T13:28:08;19.00;41.70
4677;DHT22;2352;48.180;11.478;2024-02-26T13:33:13;18.30;42.10
4677;DHT22;2352;48.180;11.478;2024-02-26T13:38:16;18.70;42.80
4677;DHT22;2352;48.180;11.478;2024-02-26T13:43:20;18.70;43.10
4677;DHT22;2352;48.180;11.478;2024-02-26T13:48:24;18.90;42.70
4677;DHT22;2352;48.180;11.478;2024-02-26T13:53:28;18.40;43.30
4677;DHT22;2352;48.180;11.478;2024-02-26T13:58:34;18.00;43.70
4677;DHT22;2352;48.180;11.478;2024-02-26T14:03:40;17.60;44.40
4677;DHT22;2352;48.180;11.478;2024-02-26T14:08:43;17.10;44.80
4677;DHT22;2352;48.180;11.478;2024-02-26T14:13:46;16.70;45.30
4677;DHT22;2352;48.180;11.478;2024-02-26T14:18:50;16.70;44.60
4677;DHT22;2352;48.180;11.478;2024-02-26T14:23:53;16.20;45.20
4677;DHT22;2352;48.180;11.478;2024-02-26T14:28:57;16.30;45.10
4677;DHT22;2352;48.180;11.478;2024-02-26T14:34:01;16.00;44.90
4677;DHT22;2352;48.180;11.478;2024-02-26T14:39:04;15.90;45.90
4677;DHT22;2352;48.180;11.478;2024-02-26T14:44:08;15.50;46.40
4677;DHT22;2352;48.180;11.478;2024-02-26T14:49:12;15.40;46.10
4677;DHT22;2352;48.180;11.478;2024-02-26T14:54:16;15.30;48.20
4677;DHT22;2352;48.180;11.478;2024-02-26T14:59:19;15.10;48.50
4677;DHT22;2352;48.180;11.478;2024-02-26T15:04:23;15.10;48.40
4677;DHT22;2352;48.180;11.478;2024-02-26T15:09:26;15.00;48.30
4677;DHT22;2352;48.180;11.478;2024-02-26T15:14:29;14.90;48.70
4677;DHT22;2352;48.180;11.478;2024-02-26T15:19:33;14.80;49.00
4677;DHT22;2352;48.180;11.478;2024-02-26T15:24:36;14.50;49.90
4677;DHT22;2352;48.180;11.478;2024-02-26T15:29:39;14.40;50.10
4677;DHT22;2352;48.180;11.478;2024-02-26T15:34:43;14.30;51.20
4677;DHT22;2352;48.180;11.478;2024-02-26T15:39:46;14.20;51.40
4677;DHT22;2352;48.180;11.478;2024-02-26T15:44:49;14.00;50.40
4677;DHT22;2352;48.180;11.478;2024-02-26T15:49:54;13.90;49.40
4677;DHT22;2352;48.180;11.478;2024-02-26T15:54:57;13.90;50.50
4677;DHT22;2352;48.180;11.478;2024-02-26T16:00:00;13.80;50.00
4677;DHT22;2352;48.180;11.478;2024-02-26T16:05:07;13.70;50.80
4677;DHT22;2352;48.180;11.478;2024-02-26T16:10:10;13.70;50.80
4677;DHT22;2352;48.180;11.478;2024-02-26T16:15:13;13.60;50.60
4677;DHT22;2352;48.180;11.478;2024-02-26T16:20:19;13.50;51.70
4677;DHT22;2352;48.180;11.478;2024-02-26T16:25:22;13.50;51.50
4677;DHT22;2352;48.180;11.478;2024-02-26T16:30:25;13.20;51.80
4677;DHT22;2352;48.180;11.478;2024-02-26T16:35:30;13.10;52.50
4677;DHT22;2352;48.180;11.478;2024-02-26T16:40:34;13.00;52.20
4677;DHT22;2352;48.180;11.478;2024-02-26T16:45:38;13.00;53.40
4677;DHT22;2352;48.180;11.478;2024-02-26T16:50:43;13.00;53.80
4677;DHT22;2352;48.180;11.478;2024-02-26T16:55:46;12.70;53.60
4677;DHT22;2352;48.180;11.478;2024-02-26T17:00:49;12.50;54.20
4677;DHT22;2352;48.180;11.478;2024-02-26T17:05:54;12.40;54.90
4677;DHT22;2352;48.180;11.478;2024-02-26T17:10:57;12.60;54.70
4677;DHT22;2352;48.180;11.478;2024-02-26T17:16:00;12.40;54.30
4677;DHT22;2352;48.180;11.478;2024-02-26T17:21:04;12.40;54.80
4677;DHT22;2352;48.180;11.478;2024-02-26T17:26:10;12.40;54.60
4677;DHT22;2352;48.180;11.478;2024-02-26T17:31:18;12.20;54.80
4677;DHT22;2352;48.180;11.478;2024-02-26T17:36:23;12.20;55.80
4677;DHT22;2352;48.180;11.478;2024-02-26T17:41:26;12.30;55.50
4677;DHT22;2352;48.180;11.478;2024-02-26T17:46:29;12.30;55.20
4677;DHT22;2352;48.180;11.478;2024-02-26T17:51:33;12.20;55.60
4677;DHT22;2352;48.180;11.478;2024-02-26T17:56:36;11.90;55.70
4677;DHT22;2352;48.180;11.478;2024-02-26T18:01:39;12.00;55.90
4677;DHT22;2352;48.180;11.478;2024-02-26T18:06:43;12.00;56.00
4677;DHT22;2352;48.180;11.478;2024-02-26T18:11:47;12.00;55.90
4677;DHT22;2352;48.180;11.478;2024-02-26T18:16:50;11.90;56.10
4677;DHT22;2352;48.180;11.478;2024-02-26T18:21:54;11.90;55.90
4677;DHT22;2352;48.180;11.478;2024-02-26T18:26:57;11.90;56.40
4677;DHT22;2352;48.180;11.478;2024-02-26T18:32:05;11.90;55.90
4677;DHT22;2352;48.180;11.478;2024-02-26T18:37:09;11.70;56.60
4677;DHT22;2352;48.180;11.478;2024-02-26T18:42:12;11.60;56.80
4677;DHT22;2352;48.180;11.478;2024-02-26T18:47:16;11.60;57.10
4677;DHT22;2352;48.180;11.478;2024-02-26T18:52:23;11.50;57.20
4677;DHT22;2352;48.180;11.478;2024-02-26T18:57:26;11.60;56.90
4677;DHT22;2352;48.180;11.478;2024-02-26T19:02:29;11.40;57.30
4677;DHT22;2352;48.180;11.478;2024-02-26T19:07:34;11.60;57.30
4677;DHT22;2352;48.180;11.478;2024-02-26T19:12:37;11.50;57.60
4677;DHT22;2352;48.180;11.478;2024-02-26T19:17:40;11.60;57.60
4677;DHT22;2352;48.180;11.478;2024-02-26T19:22:48;11.40;57.90
4677;DHT22;2352;48.180;11.478;2024-02-26T19:27:51;11.40;58.00
4677;DHT22;2352;48.180;11.478;2024-02-26T19:32:54;11.30;58.50
4677;DHT22;2352;48.180;11.478;2024-02-26T19:37:58;11.20;58.50
4677;DHT22;2352;48.180;11.478;2024-02-26T19:43:01;11.20;58.90
4677;DHT22;2352;48.180;11.478;2024-02-26T19:48:06;11.10;59.30
4677;DHT22;2352;48.180;11.478;2024-02-26T19:53:11;10.80;59.70
4677;DHT22;2352;48.180;11.478;2024-02-26T19:58:14;10.70;59.90
4677;DHT22;2352;48.180;11.478;2024-02-26T20:03:16;10.70;59.80
4677;DHT22;2352;48.180;11.478;2024-02-26T20:08:21;10.80;59.80
4677;DHT22;2352;48.180;11.478;2024-02-26T20:13:24;10.80;59.80
4677;DHT22;2352;48.180;11.478;2024-02-26T20:18:29;10.70;60.10
4677;DHT22;2352;48.180;11.478;2024-02-26T20:23:34;10.60;60.20
4677;DHT22;2352;48.180;11.478;2024-02-26T20:28:37;10.60;60.10
4677;DHT22;2352;48.180;11.478;2024-02-26T20:33:40;10.50;60.00
4677;DHT22;2352;48.180;11.478;2024-02-26T20:38:46;10.40;60.40
4677;DHT22;2352;48.180;11.478;2024-02-26T20:43:50;10.40;60.30
4677;DHT22;2352;48.180;11.478;2024-02-26T20:48:53;10.30;60.50
4677;DHT22;2352;48.180;11.478;2024-02-26T20:53:57;10.10;60.70
4677;DHT22;2352;48.180;11.478;2024-02-26T20:59:01;10.00;60.60
4677;DHT22;2352;48.180;11.478;2024-02-26T21:04:04;10.00;60.80
4677;DHT22;2352;48.180;11.478;2024-02-26T21:09:08;9.90;61.00
4677;DHT22;2352;48.180;11.478;2024-02-26T21:14:11;9.80;61.00
4677;DHT22;2352;48.180;11.478;2024-02-26T21:19:14;9.90;60.70
4677;DHT22;2352;48.180;11.478;2024-02-26T21:24:19;9.80;60.90
4677;DHT22;2352;48.180;11.478;2024-02-26T21:29:22;9.80;60.90
4677;DHT22;2352;48.180;11.478;2024-02-26T21:34:25;9.70;61.10
4677;DHT22;2352;48.180;11.478;2024-02-26T21:39:29;9.60;61.20
4677;DHT22;2352;48.180;11.478;2024-02-26T21:44:32;9.50;61.30
4677;DHT22;2352;48.180;11.478;2024-02-26T21:49:36;9.50;61.20
4677;DHT22;2352;48.180;11.478;2024-02-26T21:54:47;9.40;61.20
4677;DHT22;2352;48.180;11.478;2024-02-26T21:59:50;9.30;61.40
4677;DHT22;2352;48.180;11.478;2024-02-26T22:04:54;9.20;61.50
4677;DHT22;2352;48.180;11.478;2024-02-26T22:09:58;9.10;61.50
4677;DHT22;2352;48.180;11.478;2024-02-26T22:15:01;8.90;61.80
4677;DHT22;2352;48.180;11.478;2024-02-26T22:20:06;9.00;61.60
4677;DHT22;2352;48.180;11.478;2024-02-26T22:25:12;8.90;61.90
4677;DHT22;2352;48.180;11.478;2024-02-26T22:30:16;8.90;62.00
4677;DHT22;2352;48.180;11.478;2024-02-26T22:35:19;8.80;62.40
4677;DHT22;2352;48.180;11.478;2024-02-26T22:40:23;8.80;62.50
4677;DHT22;2352;48.180;11.478;2024-02-26T22:45:26;8.80;62.70
4677;DHT22;2352;48.180;11.478;2024-02-26T22:50:29;8.80;62.60
4677;DHT22;2352;48.180;11.478;2024-02-26T22:55:34;8.80;62.50
4677;DHT22;2352;48.180;11.478;2024-02-26T23:00:37;8.80;62.60
4677;DHT22;2352;48.180;11.478;2024-02-26T23:05:41;8.70;62.70
4677;DHT22;2352;48.180;11.478;2024-02-26T23:10:46;8.60;63.10
4677;DHT22;2352;48.180;11.478;2024-02-26T23:15:49;8.60;63.20
4677;DHT22;2352;48.180;11.478;2024-02-26T23:20:54;8.50;63.00
4677;DHT22;2352;48.180;11.478;2024-02-26T23:25:59;8.60;62.80
4677;DHT22;2352;48.180;11.478;2024-02-26T23:31:02;8.60;63.00
4677;DHT22;2352;48.180;11.478;2024-02-26T23:36:05;8.50;63.20
4677;DHT22;2352;48.180;11.478;2024-02-26T23:41:11;8.40;63.20
4677;DHT22;2352;48.180;11.478;2024-02-26T23:46:14;8.40;63.20
4677;DHT22;2352;48.180;11.478;2024-02-26T23:51:17;8.40;63.20
4677;DHT22;2352;48.180;11.478;2024-02-26T23:56:21;8.30;63.40
